sensor_id;sensor_type;location;lat;lon;timestamp;P1;durP1;ratioP1;P2;durP2;ratioP2
6467;SDS011;3267;48.794;9.928;2022-07-01T04:01:45;0.40;;;0.40;;
6467;SDS011;3267;48.794;9.928;2022-07-01T04:04:12;0.90;;;0.60;;
6467;SDS011;3267;48.794;9.928;2022-07-01T04:06:39;0.47;;;0.40;;
6467;SDS011;3267;48.794;9.928;2022-07-01T04:09:05;0.57;;;0.57;;
6467;SDS011;3267;48.794;9.928;2022-07-01T04:11:31;0.43;;;0.40;;
6467;SDS011;3267;48.794;9.928;2022-07-01T04:13:58;0.38;;;0.38;;
6467;SDS011;3267;48.794;9.928;2022-07-01T04:16:24;1.98;;;0.50;;
6467;SDS011;3267;48.794;9.928;2022-07-01T04:18:51;0.47;;;0.47;;
6467;SDS011;3267;48.794;9.928;2022-07-01T04:21:17;3.70;;;0.60;;
6467;SDS011;3267;48.794;9.928;2022-07-01T04:24:03;1.08;;;0.50;;
6467;SDS011;3267;48.794;9.928;2022-07-01T04:26:29;1.02;;;0.40;;
6467;SDS011;3267;48.794;9.928;2022-07-01T04:28:55;2.35;;;0.43;;
6467;SDS011;3267;48.794;9.928;2022-07-01T04:31:21;0.65;;;0.50;;
6467;SDS011;3267;48.794;9.928;2022-07-01T04:33:48;0.80;;;0.40;;
6467;SDS011;3267;48.794;9.928;2022-07-01T04:36:14;3.00;;;0.60;;
6467;SDS011;3267;48.794;9.928;2022-07-01T04:38:41;0.60;;;0.60;;
6467;SDS011;3267;48.794;9.928;2022-07-01T04:41:07;0.60;;;0.60;;
6467;SDS011;3267;48.794;9.928;2022-07-01T04:43:52;0.75;;;0.60;;
6467;SDS011;3267;48.794;9.928;2022-07-01T04:46:18;1.05;;;0.60;;
6467;SDS011;3267;48.794;9.928;2022-07-01T04:48:44;2.72;;;0.50;;
6467;SDS011;3267;48.794;9.928;2022-07-01T04:51:10;0.90;;;0.75;;
6467;SDS011;3267;48.794;9.928;2022-07-01T04:53:36;1.35;;;1.25;;
6467;SDS011;3267;48.794;9.928;2022-07-01T04:56:02;1.70;;;0.68;;
6467;SDS011;3267;48.794;9.928;2022-07-01T04:58:29;1.02;;;0.50;;
6467;SDS011;3267;48.794;9.928;2022-07-01T05:00:55;2.05;;;0.63;;
6467;SDS011;3267;48.794;9.928;2022-07-01T05:03:21;1.20;;;0.60;;
6467;SDS011;3267;48.794;9.928;2022-07-01T05:05:47;1.05;;;0.55;;
6467;SDS011;3267;48.794;9.928;2022-07-01T05:08:14;0.60;;;0.60;;
6467;SDS011;3267;48.794;9.928;2022-07-01T05:10:40;0.82;;;0.70;;
6467;SDS011;3267;48.794;9.928;2022-07-01T05:13:06;1.38;;;0.63;;
6467;SDS011;3267;48.794;9.928;2022-07-01T05:15:32;0.93;;;0.93;;
6467;SDS011;3267;48.794;9.928;2022-07-01T05:17:58;0.60;;;0.60;;
6467;SDS011;3267;48.794;9.928;2022-07-01T05:20:43;2.10;;;0.80;;
6467;SDS011;3267;48.794;9.928;2022-07-01T05:23:28;0.70;;;0.70;;
6467;SDS011;3267;48.794;9.928;2022-07-01T05:25:55;0.75;;;0.75;;
6467;SDS011;3267;48.794;9.928;2022-07-01T05:28:21;0.60;;;0.60;;
6467;SDS011;3267;48.794;9.928;2022-07-01T05:30:47;0.65;;;0.65;;
6467;SDS011;3267;48.794;9.928;2022-07-01T05:33:13;1.08;;;0.80;;
6467;SDS011;3267;48.794;9.928;2022-07-01T05:35:39;0.60;;;0.60;;
6467;SDS011;3267;48.794;9.928;2022-07-01T05:38:06;3.70;;;0.70;;
6467;SDS011;3267;48.794;9.928;2022-07-01T05:40:32;0.88;;;0.70;;
6467;SDS011;3267;48.794;9.928;2022-07-01T05:42:58;1.17;;;0.80;;
6467;SDS011;3267;48.794;9.928;2022-07-01T05:45:24;0.85;;;0.68;;
6467;SDS011;3267;48.794;9.928;2022-07-01T05:47:50;0.77;;;0.77;;
6467;SDS011;3267;48.794;9.928;2022-07-01T05:50:16;0.50;;;0.50;;
6467;SDS011;3267;48.794;9.928;2022-07-01T05:52:43;0.70;;;0.70;;
6467;SDS011;3267;48.794;9.928;2022-07-01T05:55:09;0.73;;;0.73;;
6467;SDS011;3267;48.794;9.928;2022-07-01T05:57:36;5.47;;;0.75;;
6467;SDS011;3267;48.794;9.928;2022-07-01T06:00:03;1.17;;;0.90;;
6467;SDS011;3267;48.794;9.928;2022-07-01T06:02:30;0.80;;;0.80;;
6467;SDS011;3267;48.794;9.928;2022-07-01T06:04:56;0.75;;;0.70;;
6467;SDS011;3267;48.794;9.928;2022-07-01T06:07:24;0.70;;;0.70;;
6467;SDS011;3267;48.794;9.928;2022-07-01T06:09:50;0.63;;;0.63;;
6467;SDS011;3267;48.794;9.928;2022-07-01T06:12:17;1.17;;;0.80;;
6467;SDS011;3267;48.794;9.928;2022-07-01T06:14:43;0.85;;;0.73;;
6467;SDS011;3267;48.794;9.928;2022-07-01T06:17:09;0.88;;;0.88;;
6467;SDS011;3267;48.794;9.928;2022-07-01T06:19:35;2.25;;;0.85;;
6467;SDS011;3267;48.794;9.928;2022-07-01T06:22:04;1.15;;;0.90;;
6467;SDS011;3267;48.794;9.928;2022-07-01T06:24:30;0.93;;;0.90;;
6467;SDS011;3267;48.794;9.928;2022-07-01T06:26:56;1.00;;;1.00;;
6467;SDS011;3267;48.794;9.928;2022-07-01T06:29:22;1.05;;;0.90;;
6467;SDS011;3267;48.794;9.928;2022-07-01T06:31:49;2.05;;;1.00;;
6467;SDS011;3267;48.794;9.928;2022-07-01T06:34:15;0.95;;;0.90;;
6467;SDS011;3267;48.794;9.928;2022-07-01T06:36:41;3.70;;;0.88;;
6467;SDS011;3267;48.794;9.928;2022-07-01T06:39:07;0.95;;;0.95;;
6467;SDS011;3267;48.794;9.928;2022-07-01T06:41:33;2.90;;;0.98;;
6467;SDS011;3267;48.794;9.928;2022-07-01T06:44:02;2.58;;;1.02;;
6467;SDS011;3267;48.794;9.928;2022-07-01T06:46:30;3.53;;;1.42;;
6467;SDS011;3267;48.794;9.928;2022-07-01T06:48:57;5.50;;;1.92;;
6467;SDS011;3267;48.794;9.928;2022-07-01T06:51:23;3.58;;;1.30;;
6467;SDS011;3267;48.794;9.928;2022-07-01T06:53:50;1.27;;;1.10;;
6467;SDS011;3267;48.794;9.928;2022-07-01T06:56:17;1.35;;;1.10;;
6467;SDS011;3267;48.794;9.928;2022-07-01T06:58:43;0.85;;;0.85;;
6467;SDS011;3267;48.794;9.928;2022-07-01T07:01:09;0.95;;;0.90;;
6467;SDS011;3267;48.794;9.928;2022-07-01T07:03:36;1.48;;;1.20;;
6467;SDS011;3267;48.794;9.928;2022-07-01T07:06:02;1.25;;;1.10;;
6467;SDS011;3267;48.794;9.928;2022-07-01T07:08:29;6.25;;;1.27;;
6467;SDS011;3267;48.794;9.928;2022-07-01T07:10:57;0.93;;;0.93;;
6467;SDS011;3267;48.794;9.928;2022-07-01T07:13:23;2.78;;;1.27;;
6467;SDS011;3267;48.794;9.928;2022-07-01T07:15:51;1.20;;;0.95;;
6467;SDS011;3267;48.794;9.928;2022-07-01T07:18:17;2.78;;;1.48;;
6467;SDS011;3267;48.794;9.928;2022-07-01T07:20:43;1.10;;;1.00;;
6467;SDS011;3267;48.794;9.928;2022-07-01T07:23:09;1.15;;;1.10;;
6467;SDS011;3267;48.794;9.928;2022-07-01T07:25:36;1.50;;;1.00;;
6467;SDS011;3267;48.794;9.928;2022-07-01T07:28:02;2.60;;;1.35;;
6467;SDS011;3267;48.794;9.928;2022-07-01T07:30:28;1.40;;;1.00;;
6467;SDS011;3267;48.794;9.928;2022-07-01T07:32:54;0.80;;;0.80;;
6467;SDS011;3267;48.794;9.928;2022-07-01T07:35:21;1.33;;;0.98;;
6467;SDS011;3267;48.794;9.928;2022-07-01T07:37:47;0.90;;;0.90;;
6467;SDS011;3267;48.794;9.928;2022-07-01T07:40:13;0.98;;;0.98;;
6467;SDS011;3267;48.794;9.928;2022-07-01T07:42:44;1.88;;;1.00;;
6467;SDS011;3267;48.794;9.928;2022-07-01T07:45:11;0.98;;;0.98;;
6467;SDS011;3267;48.794;9.928;2022-07-01T07:47:41;0.93;;;0.85;;
6467;SDS011;3267;48.794;9.928;2022-07-01T07:50:09;0.90;;;0.90;;
6467;SDS011;3267;48.794;9.928;2022-07-01T07:52:36;0.82;;;0.82;;
6467;SDS011;3267;48.794;9.928;2022-07-01T07:55:02;0.73;;;0.73;;
6467;SDS011;3267;48.794;9.928;2022-07-01T07:57:29;1.00;;;1.00;;
6467;SDS011;3267;48.794;9.928;2022-07-01T07:59:56;2.25;;;0.90;;
6467;SDS011;3267;48.794;9.928;2022-07-01T08:02:22;0.80;;;0.80;;
6467;SDS011;3267;48.794;9.928;2022-07-01T08:04:48;0.73;;;0.73;;
6467;SDS011;3267;48.794;9.928;2022-07-01T08:07:15;4.00;;;0.80;;
6467;SDS011;3267;48.794;9.928;2022-07-01T08:09:41;1.35;;;0.90;;
6467;SDS011;3267;48.794;9.928;2022-07-01T08:12:11;0.70;;;0.70;;
6467;SDS011;3267;48.794;9.928;2022-07-01T08:14:37;0.75;;;0.75;;
6467;SDS011;3267;48.794;9.928;2022-07-01T08:17:04;0.70;;;0.70;;
6467;SDS011;3267;48.794;9.928;2022-07-01T08:19:30;1.15;;;1.13;;
6467;SDS011;3267;48.794;9.928;2022-07-01T08:21:56;0.70;;;0.70;;
6467;SDS011;3267;48.794;9.928;2022-07-01T08:24:22;0.50;;;0.50;;
6467;SDS011;3267;48.794;9.928;2022-07-01T08:26:49;0.70;;;0.70;;
6467;SDS011;3267;48.794;9.928;2022-07-01T08:29:15;0.60;;;0.60;;
6467;SDS011;3267;48.794;9.928;2022-07-01T08:31:41;3.03;;;0.85;;
6467;SDS011;3267;48.794;9.928;2022-07-01T08:34:07;0.77;;;0.70;;
6467;SDS011;3267;48.794;9.928;2022-07-01T08:36:34;0.73;;;0.73;;
6467;SDS011;3267;48.794;9.928;2022-07-01T08:39:01;0.77;;;0.77;;
6467;SDS011;3267;48.794;9.928;2022-07-01T08:41:27;0.90;;;0.80;;
6467;SDS011;3267;48.794;9.928;2022-07-01T08:43:54;0.70;;;0.70;;
6467;SDS011;3267;48.794;9.928;2022-07-01T08:46:21;0.70;;;0.70;;
6467;SDS011;3267;48.794;9.928;2022-07-01T08:48:47;0.63;;;0.63;;
6467;SDS011;3267;48.794;9.928;2022-07-01T08:51:13;1.35;;;0.63;;
6467;SDS011;3267;48.794;9.928;2022-07-01T08:53:39;1.17;;;0.65;;
6467;SDS011;3267;48.794;9.928;2022-07-01T08:56:05;0.95;;;0.90;;
6467;SDS011;3267;48.794;9.928;2022-07-01T08:58:50;0.80;;;0.80;;
6467;SDS011;3267;48.794;9.928;2022-07-01T09:01:18;0.73;;;0.70;;
6467;SDS011;3267;48.794;9.928;2022-07-01T09:03:46;0.82;;;0.70;;
6467;SDS011;3267;48.794;9.928;2022-07-01T09:06:14;1.85;;;0.80;;
6467;SDS011;3267;48.794;9.928;2022-07-01T09:08:45;3.20;;;0.80;;
6467;SDS011;3267;48.794;9.928;2022-07-01T09:11:18;1.35;;;0.82;;
6467;SDS011;3267;48.794;9.928;2022-07-01T09:16:38;1.17;;;1.08;;
6467;SDS011;3267;48.794;9.928;2022-07-01T09:19:09;0.88;;;0.73;;
6467;SDS011;3267;48.794;9.928;2022-07-01T09:21:35;2.60;;;0.90;;
6467;SDS011;3267;48.794;9.928;2022-07-01T09:24:02;1.05;;;0.88;;
6467;SDS011;3267;48.794;9.928;2022-07-01T09:26:30;0.88;;;0.88;;
6467;SDS011;3267;48.794;9.928;2022-07-01T09:28:57;1.10;;;1.00;;
6467;SDS011;3267;48.794;9.928;2022-07-01T09:31:29;1.55;;;0.85;;
6467;SDS011;3267;48.794;9.928;2022-07-01T09:34:06;0.95;;;0.95;;
6467;SDS011;3267;48.794;9.928;2022-07-01T09:36:37;2.17;;;0.80;;
6467;SDS011;3267;48.794;9.928;2022-07-01T09:39:07;0.75;;;0.75;;
6467;SDS011;3267;48.794;9.928;2022-07-01T09:41:36;0.80;;;0.80;;
6467;SDS011;3267;48.794;9.928;2022-07-01T09:44:04;0.73;;;0.65;;
6467;SDS011;3267;48.794;9.928;2022-07-01T09:46:30;0.70;;;0.70;;
6467;SDS011;3267;48.794;9.928;2022-07-01T09:48:56;0.68;;;0.68;;
6467;SDS011;3267;48.794;9.928;2022-07-01T09:51:23;2.15;;;0.80;;
6467;SDS011;3267;48.794;9.928;2022-07-01T09:53:49;0.98;;;0.70;;
6467;SDS011;3267;48.794;9.928;2022-07-01T09:56:15;1.20;;;0.80;;
6467;SDS011;3267;48.794;9.928;2022-07-01T09:58:42;1.15;;;0.75;;
6467;SDS011;3267;48.794;9.928;2022-07-01T10:01:08;0.70;;;0.70;;
6467;SDS011;3267;48.794;9.928;2022-07-01T10:03:36;0.70;;;0.70;;
6467;SDS011;3267;48.794;9.928;2022-07-01T10:13:27;0.70;;;0.70;;
6467;SDS011;3267;48.794;9.928;2022-07-01T10:15:58;0.75;;;0.70;;
6467;SDS011;3267;48.794;9.928;2022-07-01T10:18:25;1.10;;;0.90;;
6467;SDS011;3267;48.794;9.928;2022-07-01T10:20:53;1.20;;;0.68;;
6467;SDS011;3267;48.794;9.928;2022-07-01T10:23:24;0.82;;;0.82;;
6467;SDS011;3267;48.794;9.928;2022-07-01T10:25:54;0.70;;;0.70;;
6467;SDS011;3267;48.794;9.928;2022-07-01T10:28:41;0.60;;;0.60;;
6467;SDS011;3267;48.794;9.928;2022-07-01T10:31:10;0.70;;;0.70;;
6467;SDS011;3267;48.794;9.928;2022-07-01T10:33:56;0.70;;;0.70;;
6467;SDS011;3267;48.794;9.928;2022-07-01T10:41:27;0.50;;;0.50;;
6467;SDS011;3267;48.794;9.928;2022-07-01T10:43:54;0.60;;;0.60;;
6467;SDS011;3267;48.794;9.928;2022-07-01T10:49:12;0.63;;;0.57;;
6467;SDS011;3267;48.794;9.928;2022-07-01T10:57:43;0.50;;;0.50;;
6467;SDS011;3267;48.794;9.928;2022-07-01T11:04:56;0.70;;;0.60;;
6467;SDS011;3267;48.794;9.928;2022-07-01T11:07:25;2.38;;;0.70;;
6467;SDS011;3267;48.794;9.928;2022-07-01T11:09:53;0.50;;;0.50;;
6467;SDS011;3267;48.794;9.928;2022-07-01T11:12:21;0.65;;;0.65;;
6467;SDS011;3267;48.794;9.928;2022-07-01T11:14:50;0.60;;;0.60;;
6467;SDS011;3267;48.794;9.928;2022-07-01T11:17:17;0.88;;;0.80;;
6467;SDS011;3267;48.794;9.928;2022-07-01T11:19:48;3.22;;;0.50;;
6467;SDS011;3267;48.794;9.928;2022-07-01T11:22:21;1.10;;;0.70;;
6467;SDS011;3267;48.794;9.928;2022-07-01T11:24:51;0.45;;;0.45;;
6467;SDS011;3267;48.794;9.928;2022-07-01T11:27:21;1.75;;;0.80;;
6467;SDS011;3267;48.794;9.928;2022-07-01T11:29:51;0.65;;;0.65;;
6467;SDS011;3267;48.794;9.928;2022-07-01T11:32:27;0.77;;;0.70;;
6467;SDS011;3267;48.794;9.928;2022-07-01T11:34:58;0.60;;;0.60;;
6467;SDS011;3267;48.794;9.928;2022-07-01T11:37:29;0.95;;;0.80;;
6467;SDS011;3267;48.794;9.928;2022-07-01T11:40:15;0.88;;;0.77;;
6467;SDS011;3267;48.794;9.928;2022-07-01T11:42:43;2.15;;;1.10;;
6467;SDS011;3267;48.794;9.928;2022-07-01T11:45:09;1.02;;;0.80;;
6467;SDS011;3267;48.794;9.928;2022-07-01T11:47:47;0.85;;;0.80;;
6467;SDS011;3267;48.794;9.928;2022-07-01T11:50:13;0.90;;;0.90;;
6467;SDS011;3267;48.794;9.928;2022-07-01T11:52:41;5.25;;;1.10;;
6467;SDS011;3267;48.794;9.928;2022-07-01T11:55:07;1.13;;;1.10;;
6467;SDS011;3267;48.794;9.928;2022-07-01T11:57:34;1.10;;;1.10;;
6467;SDS011;3267;48.794;9.928;2022-07-01T12:00:08;1.08;;;1.00;;
6467;SDS011;3267;48.794;9.928;2022-07-01T12:02:36;1.13;;;1.13;;
6467;SDS011;3267;48.794;9.928;2022-07-01T12:05:02;1.00;;;1.00;;
6467;SDS011;3267;48.794;9.928;2022-07-01T12:07:29;0.75;;;0.75;;
6467;SDS011;3267;48.794;9.928;2022-07-01T12:09:56;1.00;;;1.00;;
6467;SDS011;3267;48.794;9.928;2022-07-01T12:12:23;0.95;;;0.95;;
6467;SDS011;3267;48.794;9.928;2022-07-01T12:14:51;1.35;;;1.10;;
6467;SDS011;3267;48.794;9.928;2022-07-01T12:17:21;1.15;;;1.00;;
6467;SDS011;3267;48.794;9.928;2022-07-01T12:19:49;4.15;;;1.00;;
6467;SDS011;3267;48.794;9.928;2022-07-01T12:22:17;2.75;;;1.10;;
6467;SDS011;3267;48.794;9.928;2022-07-01T12:24:45;0.98;;;0.90;;
6467;SDS011;3267;48.794;9.928;2022-07-01T12:27:11;1.00;;;0.90;;
6467;SDS011;3267;48.794;9.928;2022-07-01T12:32:18;0.70;;;0.70;;
6467;SDS011;3267;48.794;9.928;2022-07-01T12:37:16;1.20;;;0.98;;
6467;SDS011;3267;48.794;9.928;2022-07-01T12:39:53;0.80;;;0.80;;
6467;SDS011;3267;48.794;9.928;2022-07-01T12:42:28;0.80;;;0.80;;
6467;SDS011;3267;48.794;9.928;2022-07-01T12:44:57;1.10;;;1.08;;
6467;SDS011;3267;48.794;9.928;2022-07-01T12:47:25;1.15;;;1.13;;
6467;SDS011;3267;48.794;9.928;2022-07-01T12:52:37;0.73;;;0.73;;
6467;SDS011;3267;48.794;9.928;2022-07-01T12:55:17;1.00;;;1.00;;
6467;SDS011;3267;48.794;9.928;2022-07-01T12:57:48;1.52;;;1.10;;
6467;SDS011;3267;48.794;9.928;2022-07-01T13:00:16;0.90;;;0.90;;
6467;SDS011;3267;48.794;9.928;2022-07-01T13:02:43;1.10;;;1.10;;
6467;SDS011;3267;48.794;9.928;2022-07-01T13:05:10;0.80;;;0.80;;
6467;SDS011;3267;48.794;9.928;2022-07-01T13:07:36;0.80;;;0.80;;
6467;SDS011;3267;48.794;9.928;2022-07-01T13:10:03;1.00;;;1.00;;
6467;SDS011;3267;48.794;9.928;2022-07-01T13:12:29;1.30;;;1.10;;
6467;SDS011;3267;48.794;9.928;2022-07-01T13:14:56;1.00;;;0.90;;
6467;SDS011;3267;48.794;9.928;2022-07-01T13:17:23;0.80;;;0.80;;
6467;SDS011;3267;48.794;9.928;2022-07-01T13:19:49;0.80;;;0.75;;
6467;SDS011;3267;48.794;9.928;2022-07-01T13:22:15;1.13;;;0.70;;
6467;SDS011;3267;48.794;9.928;2022-07-01T13:24:42;0.80;;;0.80;;
6467;SDS011;3267;48.794;9.928;2022-07-01T13:27:08;0.70;;;0.70;;
6467;SDS011;3267;48.794;9.928;2022-07-01T13:29:34;1.05;;;0.88;;
6467;SDS011;3267;48.794;9.928;2022-07-01T13:32:00;0.80;;;0.80;;
6467;SDS011;3267;48.794;9.928;2022-07-01T13:34:27;0.98;;;0.98;;
6467;SDS011;3267;48.794;9.928;2022-07-01T13:36:53;0.88;;;0.88;;
6467;SDS011;3267;48.794;9.928;2022-07-01T13:39:19;0.98;;;0.93;;
6467;SDS011;3267;48.794;9.928;2022-07-01T13:41:46;1.08;;;1.00;;
6467;SDS011;3267;48.794;9.928;2022-07-01T13:44:12;0.93;;;0.70;;
6467;SDS011;3267;48.794;9.928;2022-07-01T13:46:38;0.80;;;0.80;;
6467;SDS011;3267;48.794;9.928;2022-07-01T13:49:06;3.13;;;1.15;;
6467;SDS011;3267;48.794;9.928;2022-07-01T13:51:32;2.38;;;0.90;;
6467;SDS011;3267;48.794;9.928;2022-07-01T13:53:59;4.68;;;0.80;;
6467;SDS011;3267;48.794;9.928;2022-07-01T13:56:26;0.70;;;0.70;;
6467;SDS011;3267;48.794;9.928;2022-07-01T13:58:53;1.77;;;0.90;;
6467;SDS011;3267;48.794;9.928;2022-07-01T14:01:21;4.03;;;1.08;;
6467;SDS011;3267;48.794;9.928;2022-07-01T14:03:50;0.60;;;0.60;;
6467;SDS011;3267;48.794;9.928;2022-07-01T14:06:17;0.60;;;0.60;;
6467;SDS011;3267;48.794;9.928;2022-07-01T14:08:44;0.70;;;0.70;;
6467;SDS011;3267;48.794;9.928;2022-07-01T14:11:11;0.60;;;0.57;;
6467;SDS011;3267;48.794;9.928;2022-07-01T14:13:38;1.50;;;0.88;;
6467;SDS011;3267;48.794;9.928;2022-07-01T14:16:05;0.50;;;0.50;;
6467;SDS011;3267;48.794;9.928;2022-07-01T14:18:32;0.90;;;0.60;;
6467;SDS011;3267;48.794;9.928;2022-07-01T14:20:58;0.77;;;0.60;;
6467;SDS011;3267;48.794;9.928;2022-07-01T14:23:25;0.90;;;0.80;;
6467;SDS011;3267;48.794;9.928;2022-07-01T14:25:51;1.52;;;0.73;;
6467;SDS011;3267;48.794;9.928;2022-07-01T14:28:17;1.45;;;0.90;;
6467;SDS011;3267;48.794;9.928;2022-07-01T14:30:44;1.10;;;1.02;;
6467;SDS011;3267;48.794;9.928;2022-07-01T14:33:10;1.13;;;1.00;;
6467;SDS011;3267;48.794;9.928;2022-07-01T14:35:37;0.65;;;0.65;;
6467;SDS011;3267;48.794;9.928;2022-07-01T14:38:03;1.00;;;0.80;;
6467;SDS011;3267;48.794;9.928;2022-07-01T14:40:33;0.88;;;0.60;;
6467;SDS011;3267;48.794;9.928;2022-07-01T14:42:59;3.33;;;0.80;;
6467;SDS011;3267;48.794;9.928;2022-07-01T14:45:25;0.88;;;0.80;;
6467;SDS011;3267;48.794;9.928;2022-07-01T14:47:51;0.93;;;0.90;;
6467;SDS011;3267;48.794;9.928;2022-07-01T14:50:18;1.25;;;0.90;;
6467;SDS011;3267;48.794;9.928;2022-07-01T14:52:44;0.60;;;0.60;;
6467;SDS011;3267;48.794;9.928;2022-07-01T14:55:10;1.73;;;0.75;;
6467;SDS011;3267;48.794;9.928;2022-07-01T14:57:37;1.85;;;0.77;;
6467;SDS011;3267;48.794;9.928;2022-07-01T15:00:04;0.90;;;0.80;;
6467;SDS011;3267;48.794;9.928;2022-07-01T15:02:31;2.50;;;0.60;;
6467;SDS011;3267;48.794;9.928;2022-07-01T15:04:57;1.30;;;1.00;;
6467;SDS011;3267;48.794;9.928;2022-07-01T15:07:24;1.77;;;1.00;;
6467;SDS011;3267;48.794;9.928;2022-07-01T15:09:50;0.80;;;0.60;;
6467;SDS011;3267;48.794;9.928;2022-07-01T15:12:17;0.65;;;0.65;;
6467;SDS011;3267;48.794;9.928;2022-07-01T15:14:46;1.30;;;0.70;;
6467;SDS011;3267;48.794;9.928;2022-07-01T15:17:12;0.88;;;0.85;;
6467;SDS011;3267;48.794;9.928;2022-07-01T15:19:39;0.70;;;0.65;;
6467;SDS011;3267;48.794;9.928;2022-07-01T15:22:06;0.80;;;0.63;;
6467;SDS011;3267;48.794;9.928;2022-07-01T15:24:36;1.67;;;0.60;;
6467;SDS011;3267;48.794;9.928;2022-07-01T15:27:02;2.00;;;0.77;;
6467;SDS011;3267;48.794;9.928;2022-07-01T15:29:29;0.63;;;0.50;;
6467;SDS011;3267;48.794;9.928;2022-07-01T15:31:55;0.30;;;0.30;;
6467;SDS011;3267;48.794;9.928;2022-07-01T15:34:21;0.68;;;0.45;;
6467;SDS011;3267;48.794;9.928;2022-07-01T15:36:48;1.45;;;0.80;;
6467;SDS011;3267;48.794;9.928;2022-07-01T15:39:14;0.50;;;0.50;;
6467;SDS011;3267;48.794;9.928;2022-07-01T15:41:40;1.77;;;0.65;;
6467;SDS011;3267;48.794;9.928;2022-07-01T15:44:08;0.60;;;0.60;;
6467;SDS011;3267;48.794;9.928;2022-07-01T15:46:34;2.75;;;0.60;;
6467;SDS011;3267;48.794;9.928;2022-07-01T15:49:01;0.85;;;0.60;;
6467;SDS011;3267;48.794;9.928;2022-07-01T15:51:28;0.77;;;0.77;;
6467;SDS011;3267;48.794;9.928;2022-07-01T15:53:54;0.52;;;0.40;;
6467;SDS011;3267;48.794;9.928;2022-07-01T15:56:26;0.50;;;0.50;;
6467;SDS011;3267;48.794;9.928;2022-07-01T15:58:53;1.05;;;0.63;;
6467;SDS011;3267;48.794;9.928;2022-07-01T16:01:19;2.20;;;0.70;;
6467;SDS011;3267;48.794;9.928;2022-07-01T16:03:46;0.55;;;0.50;;
6467;SDS011;3267;48.794;9.928;2022-07-01T16:06:17;0.50;;;0.50;;
6467;SDS011;3267;48.794;9.928;2022-07-01T16:08:51;0.77;;;0.75;;
6467;SDS011;3267;48.794;9.928;2022-07-01T16:11:21;0.88;;;0.75;;
6467;SDS011;3267;48.794;9.928;2022-07-01T16:13:50;1.80;;;0.70;;
6467;SDS011;3267;48.794;9.928;2022-07-01T16:16:22;0.75;;;0.50;;
6467;SDS011;3267;48.794;9.928;2022-07-01T16:18:49;0.75;;;0.63;;
6467;SDS011;3267;48.794;9.928;2022-07-01T16:21:17;1.65;;;0.47;;
6467;SDS011;3267;48.794;9.928;2022-07-01T16:23:45;1.63;;;0.65;;
6467;SDS011;3267;48.794;9.928;2022-07-01T16:26:13;1.17;;;0.60;;
6467;SDS011;3267;48.794;9.928;2022-07-01T16:28:39;0.85;;;0.47;;
6467;SDS011;3267;48.794;9.928;2022-07-01T16:31:06;1.45;;;0.77;;
6467;SDS011;3267;48.794;9.928;2022-07-01T16:33:33;0.68;;;0.50;;
6467;SDS011;3267;48.794;9.928;2022-07-01T16:36:00;0.50;;;0.47;;
6467;SDS011;3267;48.794;9.928;2022-07-01T16:38:58;4.35;;;0.60;;
6467;SDS011;3267;48.794;9.928;2022-07-01T16:41:59;0.38;;;0.38;;
6467;SDS011;3267;48.794;9.928;2022-07-01T16:47:01;0.60;;;0.60;;
6467;SDS011;3267;48.794;9.928;2022-07-01T16:49:28;1.40;;;0.68;;
6467;SDS011;3267;48.794;9.928;2022-07-01T16:51:57;2.67;;;0.60;;
6467;SDS011;3267;48.794;9.928;2022-07-01T16:54:29;3.10;;;0.60;;
6467;SDS011;3267;48.794;9.928;2022-07-01T16:56:57;1.05;;;0.60;;
6467;SDS011;3267;48.794;9.928;2022-07-01T16:59:27;1.33;;;0.68;;
6467;SDS011;3267;48.794;9.928;2022-07-01T17:01:53;3.25;;;0.45;;
6467;SDS011;3267;48.794;9.928;2022-07-01T17:04:24;0.40;;;0.40;;
6467;SDS011;3267;48.794;9.928;2022-07-01T17:06:51;1.50;;;0.40;;
6467;SDS011;3267;48.794;9.928;2022-07-01T17:09:18;0.88;;;0.55;;
6467;SDS011;3267;48.794;9.928;2022-07-01T17:11:46;0.95;;;0.50;;
6467;SDS011;3267;48.794;9.928;2022-07-01T17:14:13;0.80;;;0.80;;
6467;SDS011;3267;48.794;9.928;2022-07-01T17:16:40;0.50;;;0.50;;
6467;SDS011;3267;48.794;9.928;2022-07-01T17:19:08;1.20;;;0.95;;
6467;SDS011;3267;48.794;9.928;2022-07-01T17:21:38;2.65;;;0.60;;
6467;SDS011;3267;48.794;9.928;2022-07-01T17:24:07;3.22;;;1.13;;
6467;SDS011;3267;48.794;9.928;2022-07-01T17:26:40;3.03;;;1.02;;
6467;SDS011;3267;48.794;9.928;2022-07-01T17:29:33;2.35;;;1.00;;
6467;SDS011;3267;48.794;9.928;2022-07-01T17:32:05;0.80;;;0.60;;
6467;SDS011;3267;48.794;9.928;2022-07-01T17:34:31;0.60;;;0.55;;
6467;SDS011;3267;48.794;9.928;2022-07-01T17:36:58;0.52;;;0.50;;
6467;SDS011;3267;48.794;9.928;2022-07-01T17:39:30;1.17;;;0.73;;
6467;SDS011;3267;48.794;9.928;2022-07-01T17:42:00;0.47;;;0.47;;
6467;SDS011;3267;48.794;9.928;2022-07-01T17:44:27;2.85;;;0.60;;
6467;SDS011;3267;48.794;9.928;2022-07-01T17:46:54;1.10;;;1.00;;
6467;SDS011;3267;48.794;9.928;2022-07-01T17:49:24;2.13;;;0.68;;
6467;SDS011;3267;48.794;9.928;2022-07-01T17:51:53;1.00;;;0.60;;
6467;SDS011;3267;48.794;9.928;2022-07-01T17:54:20;1.38;;;0.80;;
6467;SDS011;3267;48.794;9.928;2022-07-01T17:56:48;0.57;;;0.47;;
6467;SDS011;3267;48.794;9.928;2022-07-01T17:59:15;1.45;;;0.40;;
6467;SDS011;3267;48.794;9.928;2022-07-01T18:01:43;0.52;;;0.30;;
6467;SDS011;3267;48.794;9.928;2022-07-01T18:04:10;0.40;;;0.40;;
6467;SDS011;3267;48.794;9.928;2022-07-01T18:06:37;0.45;;;0.45;;
6467;SDS011;3267;48.794;9.928;2022-07-01T18:09:04;0.77;;;0.50;;
6467;SDS011;3267;48.794;9.928;2022-07-01T18:16:52;0.73;;;0.55;;
6467;SDS011;3267;48.794;9.928;2022-07-01T18:21:55;1.67;;;0.70;;
6467;SDS011;3267;48.794;9.928;2022-07-01T18:24:21;0.50;;;0.50;;
6467;SDS011;3267;48.794;9.928;2022-07-01T18:26:59;0.75;;;0.32;;
6467;SDS011;3267;48.794;9.928;2022-07-01T18:29:32;1.92;;;0.85;;
6467;SDS011;3267;48.794;9.928;2022-07-01T18:31:59;0.32;;;0.32;;
6467;SDS011;3267;48.794;9.928;2022-07-01T18:34:41;0.55;;;0.52;;
6467;SDS011;3267;48.794;9.928;2022-07-01T18:37:16;2.88;;;0.70;;
6467;SDS011;3267;48.794;9.928;2022-07-01T18:39:44;0.73;;;0.50;;
6467;SDS011;3267;48.794;9.928;2022-07-01T18:42:10;0.40;;;0.40;;
6467;SDS011;3267;48.794;9.928;2022-07-01T18:44:36;0.40;;;0.40;;
6467;SDS011;3267;48.794;9.928;2022-07-01T18:47:02;0.80;;;0.50;;
6467;SDS011;3267;48.794;9.928;2022-07-01T18:49:29;0.40;;;0.40;;
6467;SDS011;3267;48.794;9.928;2022-07-01T18:51:59;2.25;;;0.43;;
6467;SDS011;3267;48.794;9.928;2022-07-01T18:54:26;0.57;;;0.38;;
6467;SDS011;3267;48.794;9.928;2022-07-01T18:56:53;1.08;;;0.45;;
6467;SDS011;3267;48.794;9.928;2022-07-01T18:59:19;0.82;;;0.40;;
6467;SDS011;3267;48.794;9.928;2022-07-01T19:01:49;0.98;;;0.30;;
6467;SDS011;3267;48.794;9.928;2022-07-01T19:04:15;0.50;;;0.50;;
6467;SDS011;3267;48.794;9.928;2022-07-01T19:06:41;0.38;;;0.30;;
6467;SDS011;3267;48.794;9.928;2022-07-01T19:09:08;1.08;;;0.40;;
6467;SDS011;3267;48.794;9.928;2022-07-01T19:11:34;0.57;;;0.50;;
6467;SDS011;3267;48.794;9.928;2022-07-01T19:14:01;1.05;;;0.40;;
6467;SDS011;3267;48.794;9.928;2022-07-01T19:16:28;1.27;;;0.40;;
6467;SDS011;3267;48.794;9.928;2022-07-01T19:18:54;1.23;;;0.57;;
6467;SDS011;3267;48.794;9.928;2022-07-01T19:21:20;0.40;;;0.40;;
6467;SDS011;3267;48.794;9.928;2022-07-01T19:23:46;0.65;;;0.45;;
6467;SDS011;3267;48.794;9.928;2022-07-01T19:26:13;1.08;;;0.60;;
6467;SDS011;3267;48.794;9.928;2022-07-01T19:28:39;0.40;;;0.40;;
6467;SDS011;3267;48.794;9.928;2022-07-01T19:31:05;1.05;;;0.60;;
6467;SDS011;3267;48.794;9.928;2022-07-01T19:33:31;0.60;;;0.60;;
6467;SDS011;3267;48.794;9.928;2022-07-01T19:35:58;4.03;;;0.85;;
6467;SDS011;3267;48.794;9.928;2022-07-01T19:38:24;0.93;;;0.50;;
6467;SDS011;3267;48.794;9.928;2022-07-01T19:40:50;0.75;;;0.65;;
6467;SDS011;3267;48.794;9.928;2022-07-01T19:43:16;0.70;;;0.70;;
6467;SDS011;3267;48.794;9.928;2022-07-01T19:45:42;1.05;;;0.63;;
6467;SDS011;3267;48.794;9.928;2022-07-01T19:48:09;0.73;;;0.70;;
6467;SDS011;3267;48.794;9.928;2022-07-01T19:50:35;0.75;;;0.75;;
6467;SDS011;3267;48.794;9.928;2022-07-01T19:53:02;0.70;;;0.70;;
6467;SDS011;3267;48.794;9.928;2022-07-01T19:55:28;0.70;;;0.70;;
6467;SDS011;3267;48.794;9.928;2022-07-01T19:57:54;2.22;;;0.90;;
6467;SDS011;3267;48.794;9.928;2022-07-01T20:00:23;0.80;;;0.80;;
6467;SDS011;3267;48.794;9.928;2022-07-01T20:02:50;2.47;;;0.63;;
6467;SDS011;3267;48.794;9.928;2022-07-01T20:05:18;1.10;;;0.75;;
6467;SDS011;3267;48.794;9.928;2022-07-01T20:07:44;2.35;;;0.80;;